sensor_id;sensor_type;location;lat;lon;timestamp;pressure;altitude;pressure_sealevel;temperature;humidity
79645;BME280;69117;47.148;18.954;2023-04-28T00:00:51;101142.91;;;3.34;8.57
79645;BME280;69117;47.148;18.954;2023-04-28T00:03:53;101151.44;;;3.38;8.92
79645;BME280;69117;47.148;18.954;2023-04-28T00:06:55;101129.81;;;3.18;8.95
79645;BME280;69117;47.148;18.954;2023-04-28T00:09:57;101146.38;;;3.35;8.76
79645;BME280;69117;47.148;18.954;2023-04-28T00:12:59;101154.19;;;3.35;8.51
79645;BME280;69117;47.148;18.954;2023-04-28T00:16:00;101139.63;;;3.31;8.85
79645;BME280;69117;47.148;18.954;2023-04-28T00:19:02;101149.28;;;3.29;8.80
79645;BME280;69117;47.148;18.954;2023-04-28T00:22:04;101136.78;;;3.18;8.75
79645;BME280;69117;47.148;18.954;2023-04-28T00:25:07;101144.00;;;3.13;8.45
79645;BME280;69117;47.148;18.954;2023-04-28T00:28:09;101136.53;;;3.05;8.51
79645;BME280;69117;47.148;18.954;2023-04-28T00:31:13;101138.09;;;2.92;8.65
79645;BME280;69117;47.148;18.954;2023-04-28T00:34:16;101129.03;;;2.82;8.54
79645;BME280;69117;47.148;18.954;2023-04-28T00:37:19;101124.28;;;2.72;8.77
79645;BME280;69117;47.148;18.954;2023-04-28T00:40:20;101110.50;;;2.51;8.61
79645;BME280;69117;47.148;18.954;2023-04-28T00:43:22;101133.91;;;2.70;8.79
79645;BME280;69117;47.148;18.954;2023-04-28T00:46:29;101111.34;;;2.52;8.91
79645;BME280;69117;47.148;18.954;2023-04-28T00:49:31;101138.31;;;2.70;8.88
79645;BME280;69117;47.148;18.954;2023-04-28T00:52:34;101136.75;;;2.66;8.66
79645;BME280;69117;47.148;18.954;2023-04-28T00:55:37;101132.78;;;2.40;8.79
79645;BME280;69117;47.148;18.954;2023-04-28T00:58:39;101142.63;;;2.52;9.08
79645;BME280;69117;47.148;18.954;2023-04-28T01:01:42;101143.47;;;2.52;8.94
79645;BME280;69117;47.148;18.954;2023-04-28T01:04:44;101127.88;;;2.51;8.92
79645;BME280;69117;47.148;18.954;2023-04-28T01:07:46;101129.44;;;2.55;8.87
79645;BME280;69117;47.148;18.954;2023-04-28T01:10:48;101141.34;;;2.61;8.81
79645;BME280;69117;47.148;18.954;2023-04-28T01:13:50;101136.97;;;2.61;8.74
79645;BME280;69117;47.148;18.954;2023-04-28T01:16:52;101142.34;;;2.58;8.60
79645;BME280;69117;47.148;18.954;2023-04-28T01:19:54;101142.00;;;2.47;8.46
79645;BME280;69117;47.148;18.954;2023-04-28T01:22:56;101146.03;;;2.35;8.73
79645;BME280;69117;47.148;18.954;2023-04-28T01:25:57;101149.47;;;2.36;8.94
79645;BME280;69117;47.148;18.954;2023-04-28T01:28:59;101133.72;;;2.20;9.29
79645;BME280;69117;47.148;18.954;2023-04-28T01:32:01;101156.16;;;2.41;9.50
79645;BME280;69117;47.148;18.954;2023-04-28T01:35:02;101153.25;;;2.66;8.87
79645;BME280;69117;47.148;18.954;2023-04-28T01:38:04;101132.25;;;2.69;3.38
79645;BME280;69117;47.148;18.954;2023-04-28T01:41:06;101129.44;;;2.55;2.50
79645;BME280;69117;47.148;18.954;2023-04-28T01:44:07;101150.31;;;2.55;2.36
79645;BME280;69117;47.148;18.954;2023-04-28T01:47:09;101146.28;;;2.48;2.64
79645;BME280;69117;47.148;18.954;2023-04-28T01:50:10;101141.56;;;2.56;2.50
79645;BME280;69117;47.148;18.954;2023-04-28T01:53:18;101136.88;;;2.63;2.23
79645;BME280;69117;47.148;18.954;2023-04-28T01:56:21;101143.88;;;2.62;2.43
79645;BME280;69117;47.148;18.954;2023-04-28T01:59:22;101136.97;;;2.61;2.18
79645;BME280;69117;47.148;18.954;2023-04-28T02:02:24;101137.56;;;2.49;2.02
79645;BME280;69117;47.148;18.954;2023-04-28T02:05:25;101139.03;;;2.36;2.01
79645;BME280;69117;47.148;18.954;2023-04-28T02:08:27;101149.56;;;2.34;2.02
79645;BME280;69117;47.148;18.954;2023-04-28T02:11:30;101152.94;;;2.17;2.32
79645;BME280;69117;47.148;18.954;2023-04-28T02:14:31;101152.25;;;2.14;2.06
79645;BME280;69117;47.148;18.954;2023-04-28T02:17:33;101166.34;;;2.10;1.99
79645;BME280;69117;47.148;18.954;2023-04-28T02:20:34;101146.47;;;2.07;2.07
79645;BME280;69117;47.148;18.954;2023-04-28T02:23:36;101157.97;;;2.22;2.03
79645;BME280;69117;47.148;18.954;2023-04-28T02:26:37;101164.16;;;2.19;2.05
79645;BME280;69117;47.148;18.954;2023-04-28T02:29:39;101164.00;;;2.22;1.80
79645;BME280;69117;47.148;18.954;2023-04-28T02:32:41;101171.13;;;2.19;1.65
79645;BME280;69117;47.148;18.954;2023-04-28T02:35:43;101161.41;;;2.03;1.53
79645;BME280;69117;47.148;18.954;2023-04-28T02:38:44;101149.06;;;1.88;1.50
79645;BME280;69117;47.148;18.954;2023-04-28T02:41:46;101163.44;;;1.97;1.75
79645;BME280;69117;47.148;18.954;2023-04-28T02:44:49;101165.41;;;1.92;1.88
79645;BME280;69117;47.148;18.954;2023-04-28T02:47:50;101159.28;;;1.93;1.87
79645;BME280;69117;47.148;18.954;2023-04-28T02:50:52;101150.84;;;1.88;1.82
79645;BME280;69117;47.148;18.954;2023-04-28T02:53:54;101153.41;;;1.69;1.88
79645;BME280;69117;47.148;18.954;2023-04-28T02:56:56;101167.13;;;1.72;1.92
79645;BME280;69117;47.148;18.954;2023-04-28T02:59:58;101154.84;;;1.76;1.90
79645;BME280;69117;47.148;18.954;2023-04-28T03:02:59;101163.13;;;1.84;1.85
79645;BME280;69117;47.148;18.954;2023-04-28T03:06:01;101172.38;;;1.91;2.08
79645;BME280;69117;47.148;18.954;2023-04-28T03:09:02;101159.09;;;1.97;2.10
79645;BME280;69117;47.148;18.954;2023-04-28T03:12:04;101167.47;;;2.04;2.18
79645;BME280;69117;47.148;18.954;2023-04-28T03:15:06;101155.22;;;2.06;1.96
79645;BME280;69117;47.148;18.954;2023-04-28T03:18:09;101167.59;;;2.01;2.05
79645;BME280;69117;47.148;18.954;2023-04-28T03:21:11;101177.88;;;2.04;1.89
79645;BME280;69117;47.148;18.954;2023-04-28T03:24:12;101179.28;;;2.11;1.75
79645;BME280;69117;47.148;18.954;2023-04-28T03:27:14;101170.72;;;2.09;1.81
79645;BME280;69117;47.148;18.954;2023-04-28T03:30:16;101172.94;;;2.17;1.69
79645;BME280;69117;47.148;18.954;2023-04-28T03:33:17;101176.53;;;2.14;1.22
79645;BME280;69117;47.148;18.954;2023-04-28T03:36:19;101169.41;;;1.99;1.47
79645;BME280;69117;47.148;18.954;2023-04-28T03:39:20;101173.00;;;1.96;1.27
79645;BME280;69117;47.148;18.954;2023-04-28T03:42:22;101163.34;;;1.79;1.61
79645;BME280;69117;47.148;18.954;2023-04-28T03:45:23;101173.38;;;1.89;1.62
79645;BME280;69117;47.148;18.954;2023-04-28T03:48:25;101169.72;;;1.72;1.64
79645;BME280;69117;47.148;18.954;2023-04-28T03:51:29;101170.59;;;1.73;1.75
79645;BME280;69117;47.148;18.954;2023-04-28T03:54:31;101161.91;;;1.72;1.59
79645;BME280;69117;47.148;18.954;2023-04-28T03:57:32;101144.81;;;1.67;1.55
79645;BME280;69117;47.148;18.954;2023-04-28T04:00:34;101176.63;;;1.94;1.73
79645;BME280;69117;47.148;18.954;2023-04-28T04:03:35;101192.59;;;2.05;1.61
79645;BME280;69117;47.148;18.954;2023-04-28T04:06:37;101187.09;;;2.11;1.63
79645;BME280;69117;47.148;18.954;2023-04-28T04:09:39;101185.56;;;2.26;1.59
79645;BME280;69117;47.148;18.954;2023-04-28T04:12:40;101190.16;;;2.40;1.34
79645;BME280;69117;47.148;18.954;2023-04-28T04:15:42;101197.44;;;2.50;1.45
79645;BME280;69117;47.148;18.954;2023-04-28T04:18:43;101183.22;;;2.58;1.38
79645;BME280;69117;47.148;18.954;2023-04-28T04:21:45;101203.13;;;2.78;1.26
79645;BME280;69117;47.148;18.954;2023-04-28T04:24:46;101179.34;;;2.84;1.08
79645;BME280;69117;47.148;18.954;2023-04-28T04:27:48;101205.50;;;3.18;1.28
79645;BME280;69117;47.148;18.954;2023-04-28T04:30:50;101203.81;;;3.35;0.90
79645;BME280;69117;47.148;18.954;2023-04-28T04:33:52;101197.38;;;3.42;1.26
79645;BME280;69117;47.148;18.954;2023-04-28T04:36:53;101201.88;;;3.73;0.91
79645;BME280;69117;47.148;18.954;2023-04-28T04:39:55;101190.63;;;3.88;0.64
79645;BME280;69117;47.148;18.954;2023-04-28T04:42:56;101198.50;;;4.20;0.94
79645;BME280;69117;47.148;18.954;2023-04-28T04:45:58;101181.31;;;4.32;0.86
79645;BME280;69117;47.148;18.954;2023-04-28T04:49:00;101191.19;;;4.58;0.39
79645;BME280;69117;47.148;18.954;2023-04-28T04:52:02;101183.50;;;4.55;0.69
79645;BME280;69117;47.148;18.954;2023-04-28T04:55:04;101192.59;;;4.80;0.93
79645;BME280;69117;47.148;18.954;2023-04-28T04:58:06;101178.06;;;4.90;1.05
79645;BME280;69117;47.148;18.954;2023-04-28T05:01:09;101197.78;;;5.12;1.57
79645;BME280;69117;47.148;18.954;2023-04-28T05:04:10;101194.63;;;5.21;1.36
79645;BME280;69117;47.148;18.954;2023-04-28T05:07:12;101190.06;;;5.24;1.66
79645;BME280;69117;47.148;18.954;2023-04-28T05:10:14;101191.66;;;5.27;2.07
79645;BME280;69117;47.148;18.954;2023-04-28T05:13:15;101207.50;;;5.40;1.84
79645;BME280;69117;47.148;18.954;2023-04-28T05:16:17;101181.97;;;5.43;2.22
79645;BME280;69117;47.148;18.954;2023-04-28T05:19:19;101199.03;;;5.65;2.24
79645;BME280;69117;47.148;18.954;2023-04-28T05:22:20;101205.97;;;5.80;2.38
79645;BME280;69117;47.148;18.954;2023-04-28T05:25:22;101209.22;;;6.00;2.43
79645;BME280;69117;47.148;18.954;2023-04-28T05:28:24;101212.66;;;6.14;2.44
79645;BME280;69117;47.148;18.954;2023-04-28T05:31:25;101212.19;;;6.22;2.68
79645;BME280;69117;47.148;18.954;2023-04-28T05:34:27;101212.16;;;6.36;2.67
79645;BME280;69117;47.148;18.954;2023-04-28T05:37:28;101208.84;;;6.47;2.72
79645;BME280;69117;47.148;18.954;2023-04-28T05:40:30;101207.88;;;6.62;2.52
79645;BME280;69117;47.148;18.954;2023-04-28T05:43:32;101215.97;;;6.86;2.71
79645;BME280;69117;47.148;18.954;2023-04-28T05:46:33;101222.59;;;7.19;2.39
79645;BME280;69117;47.148;18.954;2023-04-28T05:49:36;101218.53;;;7.41;2.40
79645;BME280;69117;47.148;18.954;2023-04-28T05:52:38;101210.66;;;7.41;2.71
79645;BME280;69117;47.148;18.954;2023-04-28T05:55:39;101229.19;;;7.52;2.48
79645;BME280;69117;47.148;18.954;2023-04-28T05:58:41;101229.41;;;7.62;2.67
79645;BME280;69117;47.148;18.954;2023-04-28T06:01:45;101223.53;;;7.84;2.82
79645;BME280;69117;47.148;18.954;2023-04-28T06:04:46;101233.28;;;8.20;2.49
79645;BME280;69117;47.148;18.954;2023-04-28T06:07:48;101233.41;;;8.44;2.75
79645;BME280;69117;47.148;18.954;2023-04-28T06:10:50;101236.56;;;8.49;2.54
79645;BME280;69117;47.148;18.954;2023-04-28T06:13:52;101231.31;;;8.73;2.01
79645;BME280;69117;47.148;18.954;2023-04-28T06:16:53;101229.97;;;9.15;1.84
79645;BME280;69117;47.148;18.954;2023-04-28T06:20:01;101229.00;;;9.16;1.85
79645;BME280;69117;47.148;18.954;2023-04-28T06:23:03;101237.31;;;9.58;1.74
79645;BME280;69117;47.148;18.954;2023-04-28T06:26:05;101222.81;;;9.64;1.67
79645;BME280;69117;47.148;18.954;2023-04-28T06:29:07;101212.53;;;9.95;2.08
79645;BME280;69117;47.148;18.954;2023-04-28T06:32:08;101229.88;;;10.32;1.81
79645;BME280;69117;47.148;18.954;2023-04-28T06:35:10;101231.63;;;10.66;1.15
79645;BME280;69117;47.148;18.954;2023-04-28T06:38:12;101233.78;;;10.61;1.67
79645;BME280;69117;47.148;18.954;2023-04-28T06:41:13;101231.72;;;10.75;0.38
79645;BME280;69117;47.148;18.954;2023-04-28T06:44:15;101227.28;;;10.76;62.66
79645;BME280;69117;47.148;18.954;2023-04-28T06:47:17;101228.91;;;10.56;61.81
79645;BME280;69117;47.148;18.954;2023-04-28T06:50:18;101230.00;;;10.86;61.51
79645;BME280;69117;47.148;18.954;2023-04-28T06:53:20;101233.22;;;11.00;60.84
79645;BME280;69117;47.148;18.954;2023-04-28T06:56:22;101202.38;;;10.90;61.43
79645;BME280;69117;47.148;18.954;2023-04-28T06:59:24;101243.56;;;11.57;62.21
79645;BME280;69117;47.148;18.954;2023-04-28T07:02:26;101220.84;;;10.58;61.72
79645;BME280;69117;47.148;18.954;2023-04-28T07:05:27;101242.41;;;10.85;63.54
79645;BME280;69117;47.148;18.954;2023-04-28T07:08:30;101250.09;;;11.20;62.21
79645;BME280;69117;47.148;18.954;2023-04-28T07:11:32;101240.03;;;11.14;60.33
79645;BME280;69117;47.148;18.954;2023-04-28T07:14:33;101240.19;;;11.55;57.59
79645;BME280;69117;47.148;18.954;2023-04-28T07:17:35;101239.22;;;11.03;59.14
79645;BME280;69117;47.148;18.954;2023-04-28T07:20:37;101229.59;;;11.55;58.53
79645;BME280;69117;47.148;18.954;2023-04-28T07:23:38;101230.28;;;11.47;58.14
79645;BME280;69117;47.148;18.954;2023-04-28T07:26:41;101223.56;;;12.56;58.06
79645;BME280;69117;47.148;18.954;2023-04-28T07:29:42;101224.44;;;12.86;56.02
79645;BME280;69117;47.148;18.954;2023-04-28T07:32:44;101220.00;;;11.96;55.95
79645;BME280;69117;47.148;18.954;2023-04-28T07:35:46;101223.75;;;11.93;55.53
79645;BME280;69117;47.148;18.954;2023-04-28T07:38:48;101223.78;;;11.82;56.67
79645;BME280;69117;47.148;18.954;2023-04-28T07:41:50;101223.69;;;12.45;55.93
79645;BME280;69117;47.148;18.954;2023-04-28T07:44:51;101217.09;;;12.99;55.05
79645;BME280;69117;47.148;18.954;2023-04-28T07:47:53;101201.31;;;13.36;54.39
79645;BME280;69117;47.148;18.954;2023-04-28T07:50:55;101212.69;;;13.75;51.89
79645;BME280;69117;47.148;18.954;2023-04-28T07:53:57;101190.66;;;13.65;52.74
79645;BME280;69117;47.148;18.954;2023-04-28T07:56:59;101177.66;;;14.00;52.13
79645;BME280;69117;47.148;18.954;2023-04-28T08:00:01;101186.19;;;14.31;50.22
79645;BME280;69117;47.148;18.954;2023-04-28T08:03:02;101162.84;;;14.25;51.03
79645;BME280;69117;47.148;18.954;2023-04-28T08:06:04;101182.75;;;13.93;51.23
79645;BME280;69117;47.148;18.954;2023-04-28T08:09:06;101174.59;;;14.77;51.65
79645;BME280;69117;47.148;18.954;2023-04-28T08:12:07;101174.53;;;14.69;50.48
79645;BME280;69117;47.148;18.954;2023-04-28T08:15:10;101160.84;;;14.36;50.09
79645;BME280;69117;47.148;18.954;2023-04-28T08:18:12;101148.06;;;15.03;52.18
79645;BME280;69117;47.148;18.954;2023-04-28T08:21:14;101158.78;;;14.94;50.39
79645;BME280;69117;47.148;18.954;2023-04-28T08:24:15;101145.00;;;15.16;47.85
79645;BME280;69117;47.148;18.954;2023-04-28T08:27:17;101151.25;;;15.51;45.94
79645;BME280;69117;47.148;18.954;2023-04-28T08:30:19;101149.13;;;15.37;44.11
79645;BME280;69117;47.148;18.954;2023-04-28T08:33:20;101128.53;;;15.65;41.48
79645;BME280;69117;47.148;18.954;2023-04-28T08:36:24;101148.94;;;16.16;43.07
79645;BME280;69117;47.148;18.954;2023-04-28T08:39:29;101141.38;;;16.03;42.62
79645;BME280;69117;47.148;18.954;2023-04-28T08:42:34;101153.94;;;15.85;43.15
79645;BME280;69117;47.148;18.954;2023-04-28T08:45:40;101149.38;;;16.46;41.43
79645;BME280;69117;47.148;18.954;2023-04-28T08:48:43;101136.50;;;15.91;40.45
79645;BME280;69117;47.148;18.954;2023-04-28T08:51:52;101138.81;;;16.36;40.32
79645;BME280;69117;47.148;18.954;2023-04-28T08:55:10;101136.72;;;16.06;40.06
79645;BME280;69117;47.148;18.954;2023-04-28T08:58:13;101133.44;;;16.20;39.63
79645;BME280;69117;47.148;18.954;2023-04-28T09:01:15;101131.56;;;16.71;37.70
79645;BME280;69117;47.148;18.954;2023-04-28T09:04:16;101121.50;;;16.48;38.39
79645;BME280;69117;47.148;18.954;2023-04-28T09:07:19;101128.53;;;16.58;37.02
79645;BME280;69117;47.148;18.954;2023-04-28T09:10:22;101105.66;;;17.45;37.09
79645;BME280;69117;47.148;18.954;2023-04-28T09:13:25;101127.94;;;17.05;35.36
79645;BME280;69117;47.148;18.954;2023-04-28T09:16:38;101124.06;;;17.32;35.00
79645;BME280;69117;47.148;18.954;2023-04-28T09:19:40;101119.03;;;17.45;35.66
79645;BME280;69117;47.148;18.954;2023-04-28T09:22:45;101109.84;;;17.39;32.86
79645;BME280;69117;47.148;18.954;2023-04-28T09:26:13;101120.88;;;16.63;32.67
79645;BME280;69117;47.148;18.954;2023-04-28T09:29:15;101130.03;;;17.58;33.76
79645;BME280;69117;47.148;18.954;2023-04-28T09:32:21;101111.13;;;18.16;32.83
79645;BME280;69117;47.148;18.954;2023-04-28T09:35:38;101123.59;;;17.76;30.94
79645;BME280;69117;47.148;18.954;2023-04-28T09:38:43;101117.06;;;17.95;30.91
79645;BME280;69117;47.148;18.954;2023-04-28T09:41:45;101110.28;;;18.46;30.37
79645;BME280;69117;47.148;18.954;2023-04-28T09:44:53;101115.66;;;17.59;30.38
79645;BME280;69117;47.148;18.954;2023-04-28T09:48:08;101104.75;;;17.85;30.52
79645;BME280;69117;47.148;18.954;2023-04-28T09:51:11;101095.88;;;17.05;32.26
79645;BME280;69117;47.148;18.954;2023-04-28T09:54:20;101110.34;;;18.30;34.82
79645;BME280;69117;47.148;18.954;2023-04-28T09:57:24;101106.81;;;18.06;31.16
79645;BME280;69117;47.148;18.954;2023-04-28T10:00:27;101077.63;;;17.49;30.96
79645;BME280;69117;47.148;18.954;2023-04-28T10:03:29;101097.06;;;19.29;31.64
79645;BME280;69117;47.148;18.954;2023-04-28T10:06:33;101079.44;;;18.27;29.14
79645;BME280;69117;47.148;18.954;2023-04-28T10:09:37;101077.66;;;19.41;32.23
79645;BME280;69117;47.148;18.954;2023-04-28T10:12:39;101085.00;;;18.95;31.87
79645;BME280;69117;47.148;18.954;2023-04-28T10:15:42;101051.28;;;18.40;32.37
79645;BME280;69117;47.148;18.954;2023-04-28T10:18:44;101058.44;;;19.38;30.80
79645;BME280;69117;47.148;18.954;2023-04-28T10:21:54;101053.44;;;19.94;29.88
79645;BME280;69117;47.148;18.954;2023-04-28T10:25:19;101048.56;;;19.68;30.17
79645;BME280;69117;47.148;18.954;2023-04-28T10:28:26;101032.91;;;19.27;30.19
79645;BME280;69117;47.148;18.954;2023-04-28T10:31:27;101041.44;;;19.16;31.56
79645;BME280;69117;47.148;18.954;2023-04-28T10:34:30;101041.91;;;19.64;29.61
79645;BME280;69117;47.148;18.954;2023-04-28T10:38:04;101043.28;;;20.32;30.76
79645;BME280;69117;47.148;18.954;2023-04-28T10:41:32;101038.03;;;19.52;30.82
79645;BME280;69117;47.148;18.954;2023-04-28T10:48:10;101021.31;;;19.64;29.61
79645;BME280;69117;47.148;18.954;2023-04-28T10:54:17;101006.97;;;21.08;31.19
79645;BME280;69117;47.148;18.954;2023-04-28T10:57:20;101015.34;;;18.57;31.02
79645;BME280;69117;47.148;18.954;2023-04-28T11:00:28;101009.81;;;18.96;28.31
79645;BME280;69117;47.148;18.954;2023-04-28T11:07:09;101009.03;;;17.33;32.63
79645;BME280;69117;47.148;18.954;2023-04-28T11:10:11;101000.41;;;17.62;35.00
79645;BME280;69117;47.148;18.954;2023-04-28T11:13:28;100975.66;;;17.69;34.59
79645;BME280;69117;47.148;18.954;2023-04-28T11:19:48;100996.59;;;17.88;33.06
79645;BME280;69117;47.148;18.954;2023-04-28T11:22:51;100992.81;;;16.79;32.23
79645;BME280;69117;47.148;18.954;2023-04-28T11:25:54;100980.75;;;17.55;34.13
79645;BME280;69117;47.148;18.954;2023-04-28T11:28:56;100984.19;;;18.03;36.37
79645;BME280;69117;47.148;18.954;2023-04-28T11:31:59;100973.88;;;18.15;33.61
79645;BME280;69117;47.148;18.954;2023-04-28T11:35:01;100971.44;;;18.66;34.44
79645;BME280;69117;47.148;18.954;2023-04-28T11:38:04;100966.22;;;19.17;33.07
79645;BME280;69117;47.148;18.954;2023-04-28T11:41:06;100965.72;;;18.31;33.19
79645;BME280;69117;47.148;18.954;2023-04-28T11:47:13;100963.41;;;18.05;32.44
79645;BME280;69117;47.148;18.954;2023-04-28T11:50:15;100965.47;;;18.18;31.68
79645;BME280;69117;47.148;18.954;2023-04-28T11:53:17;100945.28;;;20.15;28.97
79645;BME280;69117;47.148;18.954;2023-04-28T11:56:19;100944.78;;;20.76;28.32
79645;BME280;69117;47.148;18.954;2023-04-28T11:59:26;100956.06;;;22.15;27.82
79645;BME280;69117;47.148;18.954;2023-04-28T12:02:28;100932.00;;;22.94;26.56
79645;BME280;69117;47.148;18.954;2023-04-28T12:05:30;100941.91;;;23.13;25.79
79645;BME280;69117;47.148;18.954;2023-04-28T12:08:36;100946.97;;;21.42;26.93
79645;BME280;69117;47.148;18.954;2023-04-28T12:11:37;100948.97;;;20.85;28.60
79645;BME280;69117;47.148;18.954;2023-04-28T12:18:09;100925.88;;;20.63;28.66
79645;BME280;69117;47.148;18.954;2023-04-28T12:21:20;100924.75;;;20.01;31.18
79645;BME280;69117;47.148;18.954;2023-04-28T12:24:22;100904.19;;;21.40;29.45
79645;BME280;69117;47.148;18.954;2023-04-28T12:27:25;100903.66;;;21.17;28.27
79645;BME280;69117;47.148;18.954;2023-04-28T12:30:29;100898.22;;;20.69;29.73
79645;BME280;69117;47.148;18.954;2023-04-28T12:33:31;100911.03;;;21.08;33.50
79645;BME280;69117;47.148;18.954;2023-04-28T12:36:39;100904.94;;;20.02;33.59
79645;BME280;69117;47.148;18.954;2023-04-28T12:39:40;100889.94;;;19.86;33.03
79645;BME280;69117;47.148;18.954;2023-04-28T12:42:43;100899.63;;;21.41;31.13
79645;BME280;69117;47.148;18.954;2023-04-28T12:45:44;100890.16;;;20.62;31.14
79645;BME280;69117;47.148;18.954;2023-04-28T12:48:46;100874.88;;;19.85;32.61
79645;BME280;69117;47.148;18.954;2023-04-28T12:51:48;100868.09;;;19.31;33.09
79645;BME280;69117;47.148;18.954;2023-04-28T12:54:51;100859.03;;;19.68;33.33
79645;BME280;69117;47.148;18.954;2023-04-28T12:57:53;100853.88;;;20.51;30.41
79645;BME280;69117;47.148;18.954;2023-04-28T13:00:55;100838.66;;;22.08;28.21
79645;BME280;69117;47.148;18.954;2023-04-28T13:03:57;100823.16;;;22.10;28.04
79645;BME280;69117;47.148;18.954;2023-04-28T13:06:59;100805.00;;;23.22;26.06
79645;BME280;69117;47.148;18.954;2023-04-28T13:10:01;100824.47;;;21.06;28.82
79645;BME280;69117;47.148;18.954;2023-04-28T13:13:03;100816.13;;;21.89;30.27
79645;BME280;69117;47.148;18.954;2023-04-28T13:16:05;100803.06;;;22.91;26.48
79645;BME280;69117;47.148;18.954;2023-04-28T13:19:07;100810.16;;;22.85;27.63
79645;BME280;69117;47.148;18.954;2023-04-28T13:22:11;100807.25;;;23.88;28.52
79645;BME280;69117;47.148;18.954;2023-04-28T13:25:12;100804.66;;;23.05;27.20
79645;BME280;69117;47.148;18.954;2023-04-28T13:28:15;100800.34;;;23.92;27.07
79645;BME280;69117;47.148;18.954;2023-04-28T13:31:17;100788.69;;;22.58;26.55
79645;BME280;69117;47.148;18.954;2023-04-28T13:34:19;100805.56;;;21.67;29.45
79645;BME280;69117;47.148;18.954;2023-04-28T13:37:21;100805.66;;;20.30;30.97
79645;BME280;69117;47.148;18.954;2023-04-28T13:40:23;100785.00;;;21.26;29.82
79645;BME280;69117;47.148;18.954;2023-04-28T13:43:24;100786.72;;;22.01;28.23
79645;BME280;69117;47.148;18.954;2023-04-28T13:46:26;100760.97;;;22.45;28.21
79645;BME280;69117;47.148;18.954;2023-04-28T13:49:28;100766.84;;;22.02;28.73
79645;BME280;69117;47.148;18.954;2023-04-28T13:55:31;100792.00;;;22.60;29.33
79645;BME280;69117;47.148;18.954;2023-04-28T13:58:33;100806.81;;;21.58;28.95
79645;BME280;69117;47.148;18.954;2023-04-28T14:01:35;100790.56;;;20.57;31.34
79645;BME280;69117;47.148;18.954;2023-04-28T14:04:36;100787.13;;;20.00;32.13
79645;BME280;69117;47.148;18.954;2023-04-28T14:07:39;100776.13;;;19.45;33.09
79645;BME280;69117;47.148;18.954;2023-04-28T14:10:41;100769.88;;;18.51;35.24
79645;BME280;69117;47.148;18.954;2023-04-28T14:13:42;100763.34;;;19.05;35.19
79645;BME280;69117;47.148;18.954;2023-04-28T14:16:46;100752.75;;;19.61;35.13
79645;BME280;69117;47.148;18.954;2023-04-28T14:19:47;100763.72;;;20.22;34.68
79645;BME280;69117;47.148;18.954;2023-04-28T14:22:49;100744.91;;;19.16;33.96
79645;BME280;69117;47.148;18.954;2023-04-28T14:25:51;100752.19;;;19.22;33.40
79645;BME280;69117;47.148;18.954;2023-04-28T14:28:56;100741.78;;;19.34;35.27
79645;BME280;69117;47.148;18.954;2023-04-28T14:31:58;100747.00;;;18.99;34.91
79645;BME280;69117;47.148;18.954;2023-04-28T14:34:59;100743.34;;;19.22;35.22
79645;BME280;69117;47.148;18.954;2023-04-28T14:38:03;100741.03;;;19.40;37.52
79645;BME280;69117;47.148;18.954;2023-04-28T14:41:05;100738.78;;;19.01;35.10
79645;BME280;69117;47.148;18.954;2023-04-28T14:44:06;100736.00;;;19.31;37.62
79645;BME280;69117;47.148;18.954;2023-04-28T14:47:08;100730.88;;;19.36;40.22
79645;BME280;69117;47.148;18.954;2023-04-28T14:50:10;100740.69;;;18.86;36.90
79645;BME280;69117;47.148;18.954;2023-04-28T14:53:14;100729.03;;;19.15;37.66
79645;BME280;69117;47.148;18.954;2023-04-28T14:56:16;100717.72;;;18.76;39.38
79645;BME280;69117;47.148;18.954;2023-04-28T14:59:20;100734.63;;;18.77;37.88
79645;BME280;69117;47.148;18.954;2023-04-28T15:02:21;100726.06;;;18.52;39.50
79645;BME280;69117;47.148;18.954;2023-04-28T15:05:28;100726.44;;;18.04;39.98
79645;BME280;69117;47.148;18.954;2023-04-28T15:08:31;100728.66;;;18.01;41.18
79645;BME280;69117;47.148;18.954;2023-04-28T15:11:33;100712.91;;;17.53;38.56
79645;BME280;69117;47.148;18.954;2023-04-28T15:14:35;100729.69;;;17.62;40.88
79645;BME280;69117;47.148;18.954;2023-04-28T15:17:36;100715.47;;;17.24;40.40
79645;BME280;69117;47.148;18.954;2023-04-28T15:20:39;100726.28;;;17.30;40.25
79645;BME280;69117;47.148;18.954;2023-04-28T15:23:41;100701.84;;;16.96;40.21
79645;BME280;69117;47.148;18.954;2023-04-28T15:26:43;100715.91;;;16.89;45.69
79645;BME280;69117;47.148;18.954;2023-04-28T15:29:44;100709.63;;;16.74;42.35
79645;BME280;69117;47.148;18.954;2023-04-28T15:32:47;100712.91;;;16.84;43.19
79645;BME280;69117;47.148;18.954;2023-04-28T15:35:49;100710.97;;;16.78;42.48
79645;BME280;69117;47.148;18.954;2023-04-28T15:38:51;100708.66;;;16.67;42.01
79645;BME280;69117;47.148;18.954;2023-04-28T15:41:53;100701.53;;;16.59;41.75
79645;BME280;69117;47.148;18.954;2023-04-28T15:44:54;100705.25;;;16.50;43.48
79645;BME280;69117;47.148;18.954;2023-04-28T15:47:56;100708.28;;;16.39;44.04
79645;BME280;69117;47.148;18.954;2023-04-28T15:50:58;100689.94;;;16.13;46.56
79645;BME280;69117;47.148;18.954;2023-04-28T15:53:59;100699.22;;;16.17;46.86
79645;BME280;69117;47.148;18.954;2023-04-28T15:57:01;100704.41;;;16.10;47.16
79645;BME280;69117;47.148;18.954;2023-04-28T16:00:04;100698.06;;;16.11;46.09
79645;BME280;69117;47.148;18.954;2023-04-28T16:03:07;100692.97;;;15.93;47.01
79645;BME280;69117;47.148;18.954;2023-04-28T16:06:09;100698.56;;;16.07;44.93
79645;BME280;69117;47.148;18.954;2023-04-28T16:09:10;100690.78;;;16.05;46.03
79645;BME280;69117;47.148;18.954;2023-04-28T16:12:12;100685.59;;;16.03;45.15
79645;BME280;69117;47.148;18.954;2023-04-28T16:15:13;100679.97;;;15.90;44.08